Main page
METAR-TAF:

METAR-TAF

Airports :

Stornoway, Scotland

Stornoway Airport

latitude: 58-13N, longitude: 006-19W, elevation: 9 m

Current weather observation

The report was made 25 minutes ago, at 08:20 UTC
Wind 10 kt from the Southwest
Temperature 12°C
Humidity 88%
Pressure 1013 hPa
Visibility 10 km or more
Few clouds at a height of 1200 ft
Scattered clouds at a height of 2500 ft
light rain showers

METAR: EGPO 230820Z 22010KT 9999 -SHRA FEW012 SCT025 12/10 Q1013

Time: 09:45 (08:45 UTC)

Forecast

The report was made 42 minutes ago, at 08:03 UTC
Forecast valid from 23 at 09 UTC to 23 at 18 UTC
Wind 10 kt from the Southwest
Visibility 10 km or more
Few clouds at a height of 2000 ft

TAF: EGPO 230803Z 2309/2318 22010KT 9999 FEW020

Weather observations and forecasts of more than 4000 airports (METAR and TAF reports).

The available stations are represented by yellow and red dots on the map.

Hover mouse over dot to see the name of the station.

Then click to see weather observations and forecasts.

To change the map : click on the green buttons with a black cross to zoom in, on the green button with a dash to zoom out, or on the green arrows for adjacent maps.


METAR-TAF: